sensor_id;sensor_type;location;lat;lon;timestamp;P1;durP1;ratioP1;P2;durP2;ratioP2
32748;SDS011;19119;52.474;13.710;2022-08-30T00:00:06;4.38;;;2.95;;
32748;SDS011;19119;52.474;13.710;2022-08-30T00:02:53;4.00;;;2.78;;
32748;SDS011;19119;52.474;13.710;2022-08-30T00:05:19;4.90;;;3.20;;
32748;SDS011;19119;52.474;13.710;2022-08-30T00:07:44;3.35;;;2.67;;
32748;SDS011;19119;52.474;13.710;2022-08-30T00:10:10;3.70;;;3.15;;
32748;SDS011;19119;52.474;13.710;2022-08-30T00:12:36;6.25;;;3.28;;
32748;SDS011;19119;52.474;13.710;2022-08-30T00:15:03;5.85;;;3.03;;
32748;SDS011;19119;52.474;13.710;2022-08-30T00:17:30;5.03;;;3.33;;
32748;SDS011;19119;52.474;13.710;2022-08-30T00:19:56;5.18;;;3.00;;
32748;SDS011;19119;52.474;13.710;2022-08-30T00:22:22;4.57;;;2.75;;
32748;SDS011;19119;52.474;13.710;2022-08-30T00:24:47;4.60;;;3.00;;
32748;SDS011;19119;52.474;13.710;2022-08-30T00:27:13;5.47;;;3.00;;
32748;SDS011;19119;52.474;13.710;2022-08-30T00:29:39;5.60;;;2.78;;
32748;SDS011;19119;52.474;13.710;2022-08-30T00:32:05;3.75;;;2.95;;
32748;SDS011;19119;52.474;13.710;2022-08-30T00:34:30;4.22;;;3.13;;
32748;SDS011;19119;52.474;13.710;2022-08-30T00:36:56;4.05;;;2.80;;
32748;SDS011;19119;52.474;13.710;2022-08-30T00:39:23;5.30;;;2.45;;
32748;SDS011;19119;52.474;13.710;2022-08-30T00:41:49;5.93;;;3.30;;
32748;SDS011;19119;52.474;13.710;2022-08-30T00:44:15;4.90;;;3.00;;
32748;SDS011;19119;52.474;13.710;2022-08-30T00:46:40;5.57;;;2.72;;
32748;SDS011;19119;52.474;13.710;2022-08-30T00:49:06;5.57;;;3.17;;
32748;SDS011;19119;52.474;13.710;2022-08-30T00:51:35;6.03;;;3.28;;
32748;SDS011;19119;52.474;13.710;2022-08-30T00:54:01;4.03;;;2.85;;
32748;SDS011;19119;52.474;13.710;2022-08-30T00:56:28;4.68;;;3.08;;
32748;SDS011;19119;52.474;13.710;2022-08-30T00:58:55;3.88;;;3.00;;
32748;SDS011;19119;52.474;13.710;2022-08-30T01:01:23;3.95;;;2.88;;
32748;SDS011;19119;52.474;13.710;2022-08-30T01:03:50;5.15;;;2.95;;
32748;SDS011;19119;52.474;13.710;2022-08-30T01:06:16;4.82;;;2.78;;
32748;SDS011;19119;52.474;13.710;2022-08-30T01:08:42;4.45;;;3.00;;
32748;SDS011;19119;52.474;13.710;2022-08-30T01:11:09;4.32;;;2.58;;
32748;SDS011;19119;52.474;13.710;2022-08-30T01:13:36;5.10;;;2.90;;
32748;SDS011;19119;52.474;13.710;2022-08-30T01:16:02;3.28;;;2.83;;
32748;SDS011;19119;52.474;13.710;2022-08-30T01:18:29;5.32;;;2.67;;
32748;SDS011;19119;52.474;13.710;2022-08-30T01:20:58;4.20;;;2.85;;
32748;SDS011;19119;52.474;13.710;2022-08-30T01:23:43;4.07;;;2.85;;
32748;SDS011;19119;52.474;13.710;2022-08-30T01:26:12;4.07;;;3.00;;
32748;SDS011;19119;52.474;13.710;2022-08-30T01:28:39;4.38;;;3.08;;
32748;SDS011;19119;52.474;13.710;2022-08-30T01:31:05;5.03;;;2.97;;
32748;SDS011;19119;52.474;13.710;2022-08-30T01:33:32;4.70;;;2.65;;
32748;SDS011;19119;52.474;13.710;2022-08-30T01:36:03;4.18;;;2.67;;
32748;SDS011;19119;52.474;13.710;2022-08-30T01:38:36;3.50;;;2.58;;
32748;SDS011;19119;52.474;13.710;2022-08-30T01:41:11;3.47;;;2.83;;
32748;SDS011;19119;52.474;13.710;2022-08-30T01:43:41;5.32;;;2.65;;
32748;SDS011;19119;52.474;13.710;2022-08-30T01:46:07;4.30;;;2.70;;
32748;SDS011;19119;52.474;13.710;2022-08-30T01:48:35;4.65;;;2.80;;
32748;SDS011;19119;52.474;13.710;2022-08-30T01:51:02;3.55;;;2.85;;
32748;SDS011;19119;52.474;13.710;2022-08-30T01:53:28;9.57;;;3.10;;
32748;SDS011;19119;52.474;13.710;2022-08-30T01:55:54;3.13;;;2.60;;
32748;SDS011;19119;52.474;13.710;2022-08-30T01:58:20;6.22;;;2.50;;
32748;SDS011;19119;52.474;13.710;2022-08-30T02:00:46;4.93;;;2.72;;
32748;SDS011;19119;52.474;13.710;2022-08-30T02:03:11;4.95;;;2.65;;
32748;SDS011;19119;52.474;13.710;2022-08-30T02:05:37;3.10;;;2.38;;
32748;SDS011;19119;52.474;13.710;2022-08-30T02:08:03;7.13;;;3.63;;
32748;SDS011;19119;52.474;13.710;2022-08-30T02:10:29;4.57;;;2.72;;
32748;SDS011;19119;52.474;13.710;2022-08-30T02:12:54;2.72;;;2.10;;
32748;SDS011;19119;52.474;13.710;2022-08-30T02:15:20;3.75;;;2.75;;
32748;SDS011;19119;52.474;13.710;2022-08-30T02:17:45;3.63;;;2.78;;
32748;SDS011;19119;52.474;13.710;2022-08-30T02:20:11;6.45;;;2.78;;
32748;SDS011;19119;52.474;13.710;2022-08-30T02:22:37;4.07;;;2.50;;
32748;SDS011;19119;52.474;13.710;2022-08-30T02:25:06;5.03;;;2.95;;
32748;SDS011;19119;52.474;13.710;2022-08-30T02:27:32;3.90;;;3.03;;
32748;SDS011;19119;52.474;13.710;2022-08-30T02:29:58;4.32;;;2.80;;
32748;SDS011;19119;52.474;13.710;2022-08-30T02:32:24;5.53;;;2.88;;
32748;SDS011;19119;52.474;13.710;2022-08-30T02:34:49;3.53;;;2.47;;
32748;SDS011;19119;52.474;13.710;2022-08-30T02:37:15;5.30;;;2.80;;
32748;SDS011;19119;52.474;13.710;2022-08-30T02:39:41;3.35;;;2.40;;
32748;SDS011;19119;52.474;13.710;2022-08-30T02:42:06;3.45;;;2.47;;
32748;SDS011;19119;52.474;13.710;2022-08-30T02:44:32;3.92;;;2.90;;
32748;SDS011;19119;52.474;13.710;2022-08-30T02:46:57;6.75;;;2.70;;
32748;SDS011;19119;52.474;13.710;2022-08-30T02:49:23;3.55;;;2.70;;
32748;SDS011;19119;52.474;13.710;2022-08-30T02:51:48;3.53;;;2.78;;
32748;SDS011;19119;52.474;13.710;2022-08-30T02:54:15;3.38;;;2.50;;
32748;SDS011;19119;52.474;13.710;2022-08-30T02:56:47;4.00;;;3.03;;
32748;SDS011;19119;52.474;13.710;2022-08-30T02:59:16;4.18;;;3.33;;
32748;SDS011;19119;52.474;13.710;2022-08-30T03:01:42;5.35;;;2.72;;
32748;SDS011;19119;52.474;13.710;2022-08-30T03:04:08;3.38;;;2.58;;
32748;SDS011;19119;52.474;13.710;2022-08-30T03:06:34;5.90;;;2.85;;
32748;SDS011;19119;52.474;13.710;2022-08-30T03:09:00;4.50;;;2.97;;
32748;SDS011;19119;52.474;13.710;2022-08-30T03:11:26;5.22;;;3.60;;
32748;SDS011;19119;52.474;13.710;2022-08-30T03:13:52;6.25;;;3.30;;
32748;SDS011;19119;52.474;13.710;2022-08-30T03:16:18;5.75;;;3.15;;
32748;SDS011;19119;52.474;13.710;2022-08-30T03:18:45;6.40;;;3.80;;
32748;SDS011;19119;52.474;13.710;2022-08-30T03:21:11;5.50;;;3.90;;
32748;SDS011;19119;52.474;13.710;2022-08-30T03:23:39;38.40;;;6.05;;
32748;SDS011;19119;52.474;13.710;2022-08-30T03:26:06;48.03;;;6.32;;
32748;SDS011;19119;52.474;13.710;2022-08-30T03:28:32;53.95;;;6.80;;
32748;SDS011;19119;52.474;13.710;2022-08-30T03:30:58;11.68;;;5.63;;
32748;SDS011;19119;52.474;13.710;2022-08-30T03:33:24;86.75;;;8.05;;
32748;SDS011;19119;52.474;13.710;2022-08-30T03:35:49;12.90;;;5.80;;
32748;SDS011;19119;52.474;13.710;2022-08-30T03:38:15;24.17;;;5.65;;
32748;SDS011;19119;52.474;13.710;2022-08-30T03:40:41;12.77;;;5.00;;
32748;SDS011;19119;52.474;13.710;2022-08-30T03:43:06;13.73;;;5.43;;
32748;SDS011;19119;52.474;13.710;2022-08-30T03:45:32;8.68;;;5.22;;
32748;SDS011;19119;52.474;13.710;2022-08-30T03:47:58;17.30;;;5.15;;
32748;SDS011;19119;52.474;13.710;2022-08-30T03:50:24;29.00;;;5.47;;
32748;SDS011;19119;52.474;13.710;2022-08-30T03:52:49;24.80;;;5.03;;
32748;SDS011;19119;52.474;13.710;2022-08-30T03:55:15;21.33;;;6.05;;
32748;SDS011;19119;52.474;13.710;2022-08-30T03:57:41;33.67;;;5.88;;
32748;SDS011;19119;52.474;13.710;2022-08-30T04:00:07;17.45;;;5.32;;
32748;SDS011;19119;52.474;13.710;2022-08-30T04:02:35;27.20;;;5.65;;
32748;SDS011;19119;52.474;13.710;2022-08-30T04:05:00;38.55;;;6.70;;
32748;SDS011;19119;52.474;13.710;2022-08-30T04:07:26;50.45;;;7.18;;
32748;SDS011;19119;52.474;13.710;2022-08-30T04:09:51;18.85;;;5.20;;
32748;SDS011;19119;52.474;13.710;2022-08-30T04:12:17;37.55;;;5.82;;
32748;SDS011;19119;52.474;13.710;2022-08-30T04:14:44;20.92;;;5.80;;
32748;SDS011;19119;52.474;13.710;2022-08-30T04:17:16;10.90;;;5.63;;
32748;SDS011;19119;52.474;13.710;2022-08-30T04:19:41;34.67;;;6.68;;
32748;SDS011;19119;52.474;13.710;2022-08-30T04:22:07;10.32;;;5.75;;
32748;SDS011;19119;52.474;13.710;2022-08-30T04:24:32;10.43;;;5.75;;
32748;SDS011;19119;52.474;13.710;2022-08-30T04:26:58;23.75;;;6.13;;
32748;SDS011;19119;52.474;13.710;2022-08-30T04:29:24;49.17;;;7.00;;
32748;SDS011;19119;52.474;13.710;2022-08-30T04:31:50;34.40;;;6.05;;
32748;SDS011;19119;52.474;13.710;2022-08-30T04:34:16;34.10;;;7.20;;
32748;SDS011;19119;52.474;13.710;2022-08-30T04:36:41;12.35;;;6.32;;
32748;SDS011;19119;52.474;13.710;2022-08-30T04:39:07;34.05;;;6.50;;
32748;SDS011;19119;52.474;13.710;2022-08-30T04:41:34;16.52;;;5.85;;
32748;SDS011;19119;52.474;13.710;2022-08-30T04:44:01;27.98;;;6.15;;
32748;SDS011;19119;52.474;13.710;2022-08-30T04:46:27;14.13;;;5.53;;
32748;SDS011;19119;52.474;13.710;2022-08-30T04:48:53;21.08;;;6.38;;
32748;SDS011;19119;52.474;13.710;2022-08-30T04:51:19;14.13;;;5.40;;
32748;SDS011;19119;52.474;13.710;2022-08-30T04:53:45;10.52;;;5.35;;
32748;SDS011;19119;52.474;13.710;2022-08-30T04:56:11;11.27;;;5.80;;
32748;SDS011;19119;52.474;13.710;2022-08-30T04:58:40;8.45;;;5.07;;
32748;SDS011;19119;52.474;13.710;2022-08-30T05:01:10;9.35;;;5.18;;
32748;SDS011;19119;52.474;13.710;2022-08-30T05:03:40;11.30;;;5.60;;
32748;SDS011;19119;52.474;13.710;2022-08-30T05:06:06;9.75;;;6.07;;
32748;SDS011;19119;52.474;13.710;2022-08-30T05:08:32;9.85;;;5.80;;
32748;SDS011;19119;52.474;13.710;2022-08-30T05:10:58;9.75;;;5.43;;
32748;SDS011;19119;52.474;13.710;2022-08-30T05:13:23;9.55;;;5.80;;
32748;SDS011;19119;52.474;13.710;2022-08-30T05:15:49;9.10;;;5.45;;
32748;SDS011;19119;52.474;13.710;2022-08-30T05:18:15;8.50;;;5.13;;
32748;SDS011;19119;52.474;13.710;2022-08-30T05:20:41;10.73;;;6.00;;
32748;SDS011;19119;52.474;13.710;2022-08-30T05:23:07;9.32;;;5.75;;
32748;SDS011;19119;52.474;13.710;2022-08-30T05:25:35;7.95;;;5.18;;
32748;SDS011;19119;52.474;13.710;2022-08-30T05:28:02;8.65;;;5.28;;
32748;SDS011;19119;52.474;13.710;2022-08-30T05:30:30;8.82;;;5.47;;
32748;SDS011;19119;52.474;13.710;2022-08-30T05:32:57;8.45;;;5.13;;
32748;SDS011;19119;52.474;13.710;2022-08-30T05:35:23;7.57;;;5.03;;
32748;SDS011;19119;52.474;13.710;2022-08-30T05:37:49;7.88;;;5.10;;
32748;SDS011;19119;52.474;13.710;2022-08-30T05:40:14;9.60;;;5.57;;
32748;SDS011;19119;52.474;13.710;2022-08-30T05:42:41;9.25;;;5.38;;
32748;SDS011;19119;52.474;13.710;2022-08-30T05:45:09;8.13;;;5.45;;
32748;SDS011;19119;52.474;13.710;2022-08-30T05:47:36;8.13;;;4.75;;
32748;SDS011;19119;52.474;13.710;2022-08-30T05:50:02;8.23;;;5.47;;
32748;SDS011;19119;52.474;13.710;2022-08-30T05:52:28;7.97;;;5.22;;
32748;SDS011;19119;52.474;13.710;2022-08-30T05:54:55;11.40;;;5.75;;
32748;SDS011;19119;52.474;13.710;2022-08-30T05:57:24;9.20;;;5.38;;
32748;SDS011;19119;52.474;13.710;2022-08-30T05:59:50;10.13;;;6.28;;
32748;SDS011;19119;52.474;13.710;2022-08-30T06:02:15;9.32;;;5.60;;
32748;SDS011;19119;52.474;13.710;2022-08-30T06:04:41;11.02;;;6.55;;
32748;SDS011;19119;52.474;13.710;2022-08-30T06:07:06;9.38;;;6.07;;
32748;SDS011;19119;52.474;13.710;2022-08-30T06:09:32;11.30;;;6.18;;
32748;SDS011;19119;52.474;13.710;2022-08-30T06:11:57;12.65;;;6.82;;
32748;SDS011;19119;52.474;13.710;2022-08-30T06:14:23;14.77;;;7.07;;
32748;SDS011;19119;52.474;13.710;2022-08-30T06:16:49;13.02;;;6.80;;
32748;SDS011;19119;52.474;13.710;2022-08-30T06:19:16;11.57;;;7.30;;
32748;SDS011;19119;52.474;13.710;2022-08-30T06:21:42;14.25;;;7.72;;
32748;SDS011;19119;52.474;13.710;2022-08-30T06:24:11;11.65;;;7.43;;
32748;SDS011;19119;52.474;13.710;2022-08-30T06:26:38;15.40;;;8.48;;
32748;SDS011;19119;52.474;13.710;2022-08-30T06:29:05;20.95;;;8.48;;
32748;SDS011;19119;52.474;13.710;2022-08-30T06:31:32;16.08;;;8.40;;
32748;SDS011;19119;52.474;13.710;2022-08-30T06:33:58;16.45;;;9.02;;
32748;SDS011;19119;52.474;13.710;2022-08-30T06:36:24;13.98;;;8.88;;
32748;SDS011;19119;52.474;13.710;2022-08-30T06:38:51;18.67;;;8.65;;
32748;SDS011;19119;52.474;13.710;2022-08-30T06:41:20;16.48;;;8.20;;
32748;SDS011;19119;52.474;13.710;2022-08-30T06:43:47;16.38;;;8.52;;
32748;SDS011;19119;52.474;13.710;2022-08-30T06:46:15;13.50;;;8.05;;
32748;SDS011;19119;52.474;13.710;2022-08-30T06:48:43;16.20;;;8.40;;
32748;SDS011;19119;52.474;13.710;2022-08-30T06:51:09;14.77;;;9.07;;
32748;SDS011;19119;52.474;13.710;2022-08-30T06:53:35;16.58;;;7.97;;
32748;SDS011;19119;52.474;13.710;2022-08-30T06:56:02;12.68;;;7.80;;
32748;SDS011;19119;52.474;13.710;2022-08-30T06:58:33;14.02;;;8.45;;
32748;SDS011;19119;52.474;13.710;2022-08-30T07:01:00;17.88;;;8.35;;
32748;SDS011;19119;52.474;13.710;2022-08-30T07:03:25;15.20;;;8.40;;
32748;SDS011;19119;52.474;13.710;2022-08-30T07:05:52;18.27;;;10.07;;
32748;SDS011;19119;52.474;13.710;2022-08-30T07:08:18;16.15;;;8.98;;
32748;SDS011;19119;52.474;13.710;2022-08-30T07:10:44;16.85;;;9.48;;
32748;SDS011;19119;52.474;13.710;2022-08-30T07:13:10;20.23;;;11.30;;
32748;SDS011;19119;52.474;13.710;2022-08-30T07:15:39;18.23;;;10.45;;
32748;SDS011;19119;52.474;13.710;2022-08-30T07:18:06;23.00;;;10.88;;
32748;SDS011;19119;52.474;13.710;2022-08-30T07:20:51;17.48;;;10.00;;
32748;SDS011;19119;52.474;13.710;2022-08-30T07:23:16;17.55;;;10.30;;
32748;SDS011;19119;52.474;13.710;2022-08-30T07:25:42;18.20;;;10.05;;
32748;SDS011;19119;52.474;13.710;2022-08-30T07:28:08;13.77;;;8.77;;
32748;SDS011;19119;52.474;13.710;2022-08-30T07:30:34;16.15;;;10.18;;
32748;SDS011;19119;52.474;13.710;2022-08-30T07:32:59;18.02;;;9.20;;
32748;SDS011;19119;52.474;13.710;2022-08-30T07:35:25;13.52;;;8.80;;
32748;SDS011;19119;52.474;13.710;2022-08-30T07:37:52;12.40;;;8.60;;
32748;SDS011;19119;52.474;13.710;2022-08-30T07:40:18;10.63;;;7.45;;
32748;SDS011;19119;52.474;13.710;2022-08-30T07:42:44;14.30;;;7.55;;
32748;SDS011;19119;52.474;13.710;2022-08-30T07:45:10;9.95;;;5.75;;
32748;SDS011;19119;52.474;13.710;2022-08-30T07:47:36;8.30;;;5.50;;
32748;SDS011;19119;52.474;13.710;2022-08-30T07:50:02;9.98;;;6.07;;
32748;SDS011;19119;52.474;13.710;2022-08-30T07:52:29;10.30;;;6.47;;
32748;SDS011;19119;52.474;13.710;2022-08-30T07:54:56;8.88;;;5.40;;
32748;SDS011;19119;52.474;13.710;2022-08-30T07:57:23;7.50;;;5.20;;
32748;SDS011;19119;52.474;13.710;2022-08-30T07:59:49;8.15;;;4.65;;
32748;SDS011;19119;52.474;13.710;2022-08-30T08:02:15;7.75;;;4.57;;
32748;SDS011;19119;52.474;13.710;2022-08-30T08:04:41;9.45;;;5.20;;
32748;SDS011;19119;52.474;13.710;2022-08-30T08:07:08;6.47;;;5.13;;
32748;SDS011;19119;52.474;13.710;2022-08-30T08:09:34;7.57;;;4.95;;
32748;SDS011;19119;52.474;13.710;2022-08-30T08:12:02;6.32;;;4.32;;
32748;SDS011;19119;52.474;13.710;2022-08-30T08:14:29;6.68;;;4.63;;
32748;SDS011;19119;52.474;13.710;2022-08-30T08:16:54;6.25;;;4.43;;
32748;SDS011;19119;52.474;13.710;2022-08-30T08:19:20;7.65;;;4.60;;
32748;SDS011;19119;52.474;13.710;2022-08-30T08:21:45;4.03;;;3.55;;
32748;SDS011;19119;52.474;13.710;2022-08-30T08:24:11;5.25;;;4.18;;
32748;SDS011;19119;52.474;13.710;2022-08-30T08:26:37;5.00;;;3.30;;
32748;SDS011;19119;52.474;13.710;2022-08-30T08:29:04;4.82;;;3.83;;
32748;SDS011;19119;52.474;13.710;2022-08-30T08:31:30;5.47;;;3.38;;
32748;SDS011;19119;52.474;13.710;2022-08-30T08:33:56;5.40;;;4.22;;
32748;SDS011;19119;52.474;13.710;2022-08-30T08:36:23;9.80;;;4.80;;
32748;SDS011;19119;52.474;13.710;2022-08-30T08:38:50;5.18;;;3.67;;
32748;SDS011;19119;52.474;13.710;2022-08-30T08:44:24;4.93;;;2.50;;
32748;SDS011;19119;52.474;13.710;2022-08-30T08:49:26;4.25;;;2.85;;
32748;SDS011;19119;52.474;13.710;2022-08-30T08:51:52;2.55;;;1.70;;
32748;SDS011;19119;52.474;13.710;2022-08-30T08:54:39;3.70;;;1.80;;
32748;SDS011;19119;52.474;13.710;2022-08-30T08:57:12;6.50;;;2.33;;
32748;SDS011;19119;52.474;13.710;2022-08-30T08:59:38;3.78;;;1.55;;
32748;SDS011;19119;52.474;13.710;2022-08-30T09:02:11;1.80;;;1.20;;
32748;SDS011;19119;52.474;13.710;2022-08-30T09:04:48;3.28;;;1.80;;
32748;SDS011;19119;52.474;13.710;2022-08-30T09:07:20;1.60;;;1.13;;
32748;SDS011;19119;52.474;13.710;2022-08-30T09:09:48;1.40;;;1.08;;
32748;SDS011;19119;52.474;13.710;2022-08-30T09:12:14;1.92;;;1.30;;
32748;SDS011;19119;52.474;13.710;2022-08-30T09:14:44;3.08;;;1.30;;
32748;SDS011;19119;52.474;13.710;2022-08-30T09:17:13;2.97;;;1.10;;
32748;SDS011;19119;52.474;13.710;2022-08-30T09:19:41;2.40;;;1.05;;
32748;SDS011;19119;52.474;13.710;2022-08-30T09:22:35;1.65;;;1.00;;
32748;SDS011;19119;52.474;13.710;2022-08-30T09:25:05;1.92;;;0.75;;
32748;SDS011;19119;52.474;13.710;2022-08-30T09:27:45;1.80;;;1.20;;
32748;SDS011;19119;52.474;13.710;2022-08-30T09:30:17;2.47;;;1.02;;
32748;SDS011;19119;52.474;13.710;2022-08-30T09:32:56;1.92;;;1.13;;
32748;SDS011;19119;52.474;13.710;2022-08-30T09:35:44;2.35;;;1.10;;
32748;SDS011;19119;52.474;13.710;2022-08-30T09:38:21;6.78;;;0.95;;
32748;SDS011;19119;52.474;13.710;2022-08-30T09:43:22;2.15;;;0.80;;
32748;SDS011;19119;52.474;13.710;2022-08-30T09:48:28;1.10;;;0.88;;
32748;SDS011;19119;52.474;13.710;2022-08-30T09:53:35;4.93;;;1.10;;
32748;SDS011;19119;52.474;13.710;2022-08-30T09:56:27;1.73;;;0.90;;
32748;SDS011;19119;52.474;13.710;2022-08-30T10:07:39;1.60;;;1.08;;
32748;SDS011;19119;52.474;13.710;2022-08-30T10:10:19;2.00;;;0.80;;
32748;SDS011;19119;52.474;13.710;2022-08-30T10:13:04;1.38;;;1.00;;
32748;SDS011;19119;52.474;13.710;2022-08-30T10:15:50;1.10;;;0.75;;
32748;SDS011;19119;52.474;13.710;2022-08-30T10:21:18;1.52;;;0.80;;
32748;SDS011;19119;52.474;13.710;2022-08-30T10:24:04;4.03;;;0.88;;
32748;SDS011;19119;52.474;13.710;2022-08-30T10:29:05;1.13;;;0.60;;
32748;SDS011;19119;52.474;13.710;2022-08-30T10:31:41;1.10;;;0.90;;
32748;SDS011;19119;52.474;13.710;2022-08-30T10:34:31;1.02;;;0.60;;
32748;SDS011;19119;52.474;13.710;2022-08-30T10:37:06;0.82;;;0.40;;
32748;SDS011;19119;52.474;13.710;2022-08-30T10:39:49;1.02;;;0.70;;
32748;SDS011;19119;52.474;13.710;2022-08-30T10:42:20;1.65;;;0.60;;
32748;SDS011;19119;52.474;13.710;2022-08-30T10:44:54;1.08;;;0.50;;
32748;SDS011;19119;52.474;13.710;2022-08-30T10:50:16;1.40;;;0.57;;
32748;SDS011;19119;52.474;13.710;2022-08-30T10:52:51;1.88;;;0.60;;
32748;SDS011;19119;52.474;13.710;2022-08-30T10:58:36;1.08;;;0.47;;
32748;SDS011;19119;52.474;13.710;2022-08-30T11:04:08;2.10;;;0.90;;
32748;SDS011;19119;52.474;13.710;2022-08-30T11:06:59;0.60;;;0.50;;
32748;SDS011;19119;52.474;13.710;2022-08-30T11:12:37;1.67;;;0.60;;
32748;SDS011;19119;52.474;13.710;2022-08-30T11:15:21;1.75;;;0.70;;
32748;SDS011;19119;52.474;13.710;2022-08-30T11:17:54;2.92;;;0.80;;
32748;SDS011;19119;52.474;13.710;2022-08-30T11:20:44;1.10;;;0.68;;
32748;SDS011;19119;52.474;13.710;2022-08-30T11:23:24;1.98;;;0.98;;
32748;SDS011;19119;52.474;13.710;2022-08-30T11:33:51;1.80;;;0.70;;
32748;SDS011;19119;52.474;13.710;2022-08-30T11:36:59;2.28;;;0.85;;
32748;SDS011;19119;52.474;13.710;2022-08-30T11:41:40;3.22;;;1.27;;
32748;SDS011;19119;52.474;13.710;2022-08-30T11:44:11;2.92;;;1.17;;
32748;SDS011;19119;52.474;13.710;2022-08-30T11:46:49;1.80;;;0.98;;
32748;SDS011;19119;52.474;13.710;2022-08-30T12:00:03;2.05;;;1.20;;
32748;SDS011;19119;52.474;13.710;2022-08-30T12:02:54;2.13;;;1.37;;
32748;SDS011;19119;52.474;13.710;2022-08-30T12:11:50;4.68;;;1.00;;
32748;SDS011;19119;52.474;13.710;2022-08-30T12:13:58;1.85;;;1.23;;
32748;SDS011;19119;52.474;13.710;2022-08-30T12:16:40;2.90;;;1.10;;
32748;SDS011;19119;52.474;13.710;2022-08-30T12:19:27;2.78;;;1.50;;
32748;SDS011;19119;52.474;13.710;2022-08-30T12:21:58;2.00;;;1.25;;
32748;SDS011;19119;52.474;13.710;2022-08-30T12:27:20;3.30;;;1.20;;
32748;SDS011;19119;52.474;13.710;2022-08-30T12:29:52;4.32;;;1.20;;
32748;SDS011;19119;52.474;13.710;2022-08-30T12:32:23;2.15;;;1.42;;
32748;SDS011;19119;52.474;13.710;2022-08-30T12:35:00;1.42;;;1.00;;
32748;SDS011;19119;52.474;13.710;2022-08-30T12:37:34;1.70;;;1.00;;
32748;SDS011;19119;52.474;13.710;2022-08-30T12:42:27;2.55;;;1.30;;
32748;SDS011;19119;52.474;13.710;2022-08-30T12:44:56;2.22;;;1.00;;
32748;SDS011;19119;52.474;13.710;2022-08-30T12:47:26;3.28;;;0.90;;
32748;SDS011;19119;52.474;13.710;2022-08-30T12:50:15;1.35;;;0.85;;
32748;SDS011;19119;52.474;13.710;2022-08-30T12:52:48;1.63;;;1.17;;
32748;SDS011;19119;52.474;13.710;2022-08-30T12:55:23;2.70;;;1.00;;
32748;SDS011;19119;52.474;13.710;2022-08-30T13:02:53;1.60;;;0.98;;
32748;SDS011;19119;52.474;13.710;2022-08-30T13:05:27;1.52;;;0.70;;
32748;SDS011;19119;52.474;13.710;2022-08-30T13:10:48;2.42;;;0.77;;
32748;SDS011;19119;52.474;13.710;2022-08-30T13:13:41;1.67;;;0.88;;
32748;SDS011;19119;52.474;13.710;2022-08-30T13:16:20;1.75;;;0.77;;
32748;SDS011;19119;52.474;13.710;2022-08-30T13:22:00;1.33;;;0.68;;
32748;SDS011;19119;52.474;13.710;2022-08-30T13:24:27;2.20;;;0.93;;
32748;SDS011;19119;52.474;13.710;2022-08-30T13:26:54;3.38;;;0.80;;
32748;SDS011;19119;52.474;13.710;2022-08-30T13:29:24;0.85;;;0.60;;
32748;SDS011;19119;52.474;13.710;2022-08-30T13:31:50;1.40;;;0.80;;
32748;SDS011;19119;52.474;13.710;2022-08-30T13:34:16;1.42;;;0.80;;
32748;SDS011;19119;52.474;13.710;2022-08-30T13:36:47;1.75;;;0.90;;
32748;SDS011;19119;52.474;13.710;2022-08-30T13:39:15;1.23;;;0.90;;
32748;SDS011;19119;52.474;13.710;2022-08-30T13:41:41;1.50;;;1.10;;
32748;SDS011;19119;52.474;13.710;2022-08-30T13:44:07;2.08;;;1.20;;
32748;SDS011;19119;52.474;13.710;2022-08-30T13:46:32;1.83;;;1.17;;
32748;SDS011;19119;52.474;13.710;2022-08-30T13:49:06;4.53;;;1.90;;
32748;SDS011;19119;52.474;13.710;2022-08-30T13:51:35;3.65;;;1.23;;
32748;SDS011;19119;52.474;13.710;2022-08-30T13:54:01;2.63;;;1.02;;
32748;SDS011;19119;52.474;13.710;2022-08-30T13:56:27;3.30;;;1.67;;
32748;SDS011;19119;52.474;13.710;2022-08-30T13:58:59;3.08;;;2.00;;
32748;SDS011;19119;52.474;13.710;2022-08-30T14:01:25;2.38;;;1.58;;
32748;SDS011;19119;52.474;13.710;2022-08-30T14:03:52;3.70;;;1.80;;
32748;SDS011;19119;52.474;13.710;2022-08-30T14:06:17;3.15;;;1.85;;
32748;SDS011;19119;52.474;13.710;2022-08-30T14:08:43;4.82;;;2.55;;
32748;SDS011;19119;52.474;13.710;2022-08-30T14:11:09;3.72;;;2.38;;
32748;SDS011;19119;52.474;13.710;2022-08-30T14:13:36;3.05;;;2.63;;
32748;SDS011;19119;52.474;13.710;2022-08-30T14:16:04;5.78;;;2.53;;
32748;SDS011;19119;52.474;13.710;2022-08-30T14:18:31;3.00;;;2.67;;
32748;SDS011;19119;52.474;13.710;2022-08-30T14:20:56;3.40;;;2.60;;
32748;SDS011;19119;52.474;13.710;2022-08-30T14:23:23;3.42;;;2.45;;
32748;SDS011;19119;52.474;13.710;2022-08-30T14:25:49;4.22;;;2.65;;
32748;SDS011;19119;52.474;13.710;2022-08-30T14:28:14;6.50;;;2.33;;
32748;SDS011;19119;52.474;13.710;2022-08-30T14:30:40;3.75;;;2.63;;
32748;SDS011;19119;52.474;13.710;2022-08-30T14:33:05;3.67;;;2.60;;
32748;SDS011;19119;52.474;13.710;2022-08-30T14:35:31;5.55;;;2.42;;
32748;SDS011;19119;52.474;13.710;2022-08-30T14:37:57;5.75;;;2.63;;
32748;SDS011;19119;52.474;13.710;2022-08-30T14:40:22;3.80;;;2.30;;
32748;SDS011;19119;52.474;13.710;2022-08-30T14:42:48;5.13;;;2.47;;
32748;SDS011;19119;52.474;13.710;2022-08-30T14:45:13;3.78;;;2.90;;
32748;SDS011;19119;52.474;13.710;2022-08-30T14:47:39;5.25;;;2.67;;
32748;SDS011;19119;52.474;13.710;2022-08-30T14:50:05;3.22;;;2.60;;
32748;SDS011;19119;52.474;13.710;2022-08-30T14:52:32;3.60;;;2.55;;
32748;SDS011;19119;52.474;13.710;2022-08-30T14:54:58;4.20;;;2.92;;
32748;SDS011;19119;52.474;13.710;2022-08-30T14:57:25;3.45;;;2.83;;
32748;SDS011;19119;52.474;13.710;2022-08-30T14:59:50;4.05;;;2.90;;
32748;SDS011;19119;52.474;13.710;2022-08-30T15:02:16;5.18;;;2.80;;
32748;SDS011;19119;52.474;13.710;2022-08-30T15:04:42;6.65;;;2.72;;
32748;SDS011;19119;52.474;13.710;2022-08-30T15:07:08;3.13;;;2.50;;
32748;SDS011;19119;52.474;13.710;2022-08-30T15:09:34;4.78;;;2.70;;
32748;SDS011;19119;52.474;13.710;2022-08-30T15:12:00;4.13;;;2.60;;
32748;SDS011;19119;52.474;13.710;2022-08-30T15:14:28;3.35;;;2.35;;
32748;SDS011;19119;52.474;13.710;2022-08-30T15:16:55;5.47;;;2.83;;
32748;SDS011;19119;52.474;13.710;2022-08-30T15:19:22;10.07;;;2.92;;
32748;SDS011;19119;52.474;13.710;2022-08-30T15:21:48;4.07;;;2.45;;
32748;SDS011;19119;52.474;13.710;2022-08-30T15:24:15;2.90;;;2.50;;
32748;SDS011;19119;52.474;13.710;2022-08-30T15:26:42;3.63;;;2.60;;
32748;SDS011;19119;52.474;13.710;2022-08-30T15:29:09;3.92;;;2.35;;
32748;SDS011;19119;52.474;13.710;2022-08-30T15:31:36;2.28;;;2.08;;
32748;SDS011;19119;52.474;13.710;2022-08-30T15:34:04;2.65;;;2.17;;
32748;SDS011;19119;52.474;13.710;2022-08-30T15:36:30;3.70;;;2.55;;
32748;SDS011;19119;52.474;13.710;2022-08-30T15:38:56;3.40;;;2.40;;
32748;SDS011;19119;52.474;13.710;2022-08-30T15:41:24;2.55;;;2.13;;
32748;SDS011;19119;52.474;13.710;2022-08-30T15:43:50;5.50;;;1.80;;
32748;SDS011;19119;52.474;13.710;2022-08-30T15:48:47;2.72;;;2.20;;
32748;SDS011;19119;52.474;13.710;2022-08-30T15:51:15;4.07;;;2.40;;
32748;SDS011;19119;52.474;13.710;2022-08-30T15:53:41;2.50;;;2.10;;
32748;SDS011;19119;52.474;13.710;2022-08-30T15:56:07;8.02;;;3.03;;
32748;SDS011;19119;52.474;13.710;2022-08-30T15:58:34;3.47;;;2.65;;
32748;SDS011;19119;52.474;13.710;2022-08-30T16:01:00;3.20;;;2.20;;
32748;SDS011;19119;52.474;13.710;2022-08-30T16:03:28;2.40;;;2.00;;